Time;durP1;ratioP1;P1;durP2;ratioP2;P2;SDS_P1;SDS_P2;PMS_P1;PMS_P2;Temp;Humidity;BMP_temperature;BMP_pressure;BME280_temperature;BME280_humidity;BME280_pressure;Samples;Min_cycle;Max_cycle;Signal;HPM_P1;HPM_P2
2021/06/20 00:00:46;;;;;;;16.98;14.98;;;;;;;;;;2033069;29;20168;-56
2021/06/20 00:01:46;;;;;;;16.33;14.73;;;;;;;;;;2032339;29;20196;-59
2021/06/20 00:02:47;;;;;;;16.77;15.13;;;;;;;;;;2032616;29;20191;-57
2021/06/20 00:03:47;;;;;;;16.30;14.10;;;;;;;;;;2033457;29;20537;-61
2021/06/20 00:04:47;;;;;;;15.63;14.10;;;;;;;;;;2032093;29;20768;-58
2021/06/20 00:05:52;;;;;;;16.38;14.63;;;;;;;;;;2041313;29;20178;-62
2021/06/20 00:06:52;;;;;;;16.83;15.10;;;;;;;;;;2041083;29;20202;-59
2021/06/20 00:07:52;;;;;;;18.92;15.05;;;;;;;;;;2035894;29;20223;-60
2021/06/20 00:08:56;;;;;;;16.65;15.05;;;;;;;;;;2028929;29;20189;-60
2021/06/20 00:09:56;;;;;;;17.02;15.35;;;;;;;;;;2032496;29;20188;-61
2021/06/20 00:10:56;;;;;;;18.05;16.23;;;;;;;;;;2028242;29;20173;-57
2021/06/20 00:11:57;;;;;;;16.27;14.77;;;;;;;;;;2033000;29;20200;-59
2021/06/20 00:12:57;;;;;;;16.70;15.07;;;;;;;;;;2033163;29;21020;-56
2021/06/20 00:13:58;;;;;;;17.92;16.15;;;;;;;;;;2040690;29;20262;-56
2021/06/20 00:14:58;;;;;;;19.27;17.42;;;;;;;;;;2039949;29;20203;-61
2021/06/20 00:15:58;;;;;;;17.80;16.02;;;;;;;;;;2034073;29;20168;-58
2021/06/20 00:16:59;;;;;;;22.75;20.55;;;;;;;;;;2033917;29;20172;-60
2021/06/20 00:17:59;;;;;;;19.77;16.00;;;;;;;;;;2033343;29;20211;-62
2021/06/20 00:18:59;;;;;;;21.25;17.80;;;;;;;;;;2040344;29;20179;-58
2021/06/20 00:19:59;;;;;;;17.13;15.40;;;;;;;;;;2040192;29;20200;-62
2021/06/20 00:21:00;;;;;;;20.08;17.98;;;;;;;;;;2032746;29;20191;-62
2021/06/20 00:22:00;;;;;;;18.33;16.48;;;;;;;;;;2031522;29;20188;-60
2021/06/20 00:23:00;;;;;;;27.98;25.33;;;;;;;;;;2032935;29;20177;-60
2021/06/20 00:24:01;;;;;;;18.65;16.55;;;;;;;;;;2032371;29;20180;-56
2021/06/20 00:25:02;;;;;;;16.88;15.25;;;;;;;;;;2033154;29;20341;-62
2021/06/20 00:26:03;;;;;;;19.98;17.88;;;;;;;;;;2032795;29;20176;-58
2021/06/20 00:27:03;;;;;;;18.30;16.50;;;;;;;;;;2033083;29;20184;-62
2021/06/20 00:28:03;;;;;;;16.08;14.63;;;;;;;;;;2031745;29;20204;-58
2021/06/20 00:29:04;;;;;;;19.77;17.85;;;;;;;;;;2033583;29;20199;-61
2021/06/20 00:30:05;;;;;;;17.65;15.48;;;;;;;;;;2040378;29;20199;-59
2021/06/20 00:31:06;;;;;;;18.58;16.77;;;;;;;;;;2030426;29;20185;-61
2021/06/20 00:32:06;;;;;;;16.85;15.07;;;;;;;;;;2032421;29;20603;-60
2021/06/20 00:33:07;;;;;;;17.65;15.93;;;;;;;;;;2033012;29;20669;-60
2021/06/20 00:34:07;;;;;;;19.05;17.20;;;;;;;;;;2040177;29;20259;-59
2021/06/20 00:35:07;;;;;;;17.95;16.25;;;;;;;;;;2038670;29;20192;-60
2021/06/20 00:36:08;;;;;;;17.20;15.60;;;;;;;;;;2033133;29;20208;-59
2021/06/20 00:37:08;;;;;;;18.80;16.88;;;;;;;;;;2029530;29;20339;-60
2021/06/20 00:38:09;;;;;;;19.38;17.23;;;;;;;;;;2032647;29;20180;-59
2021/06/20 00:39:09;;;;;;;16.63;14.88;;;;;;;;;;2032781;29;20223;-60
2021/06/20 00:40:09;;;;;;;17.75;15.98;;;;;;;;;;2032582;29;20661;-60
2021/06/20 00:41:10;;;;;;;16.83;15.10;;;;;;;;;;2032513;29;20202;-60
2021/06/20 00:42:10;;;;;;;17.50;15.80;;;;;;;;;;2031973;29;20205;-56
2021/06/20 00:43:10;;;;;;;17.55;15.75;;;;;;;;;;2031165;29;20200;-58
2021/06/20 00:44:11;;;;;;;18.45;16.63;;;;;;;;;;2030345;29;20185;-60
2021/06/20 00:45:13;;;;;;;17.70;15.85;;;;;;;;;;2040572;29;20192;-59
2021/06/20 00:46:13;;;;;;;18.48;16.52;;;;;;;;;;2031285;29;20185;-58
2021/06/20 00:47:15;;;;;;;15.50;14.10;;;;;;;;;;2033953;29;20189;-60
2021/06/20 00:48:15;;;;;;;17.60;15.77;;;;;;;;;;2032374;29;20180;-55
2021/06/20 00:49:15;;;;;;;16.85;15.15;;;;;;;;;;2031468;29;20275;-57
2021/06/20 00:50:15;;;;;;;16.95;15.35;;;;;;;;;;2033346;29;20242;-55
2021/06/20 00:51:16;;;;;;;17.13;15.60;;;;;;;;;;2030991;29;20180;-56
2021/06/20 00:52:17;;;;;;;17.20;15.68;;;;;;;;;;2037858;29;20184;-56
2021/06/20 00:53:18;;;;;;;17.75;16.08;;;;;;;;;;2037445;29;20689;-59
2021/06/20 00:54:19;;;;;;;16.10;14.63;;;;;;;;;;2032821;29;20168;-59
2021/06/20 00:55:19;;;;;;;19.50;17.58;;;;;;;;;;2032482;29;20211;-60
2021/06/20 00:56:20;;;;;;;20.45;18.20;;;;;;;;;;2030645;29;20176;-57
2021/06/20 00:57:21;;;;;;;18.13;16.33;;;;;;;;;;2032926;29;20192;-59
2021/06/20 00:58:21;;;;;;;19.65;17.58;;;;;;;;;;2032575;29;20194;-59
2021/06/20 00:59:22;;;;;;;19.48;17.48;;;;;;;;;;2031799;29;20223;-61
2021/06/20 01:00:22;;;;;;;18.52;16.70;;;;;;;;;;2032884;29;20192;-59
2021/06/20 01:01:22;;;;;;;17.58;15.90;;;;;;;;;;2031060;29;20176;-58
2021/06/20 01:02:22;;;;;;;20.17;18.13;;;;;;;;;;2032584;29;20181;-57
2021/06/20 01:03:23;;;;;;;19.20;17.38;;;;;;;;;;2031093;29;20215;-59
2021/06/20 01:04:23;;;;;;;18.70;16.83;;;;;;;;;;2032900;29;20172;-59
2021/06/20 01:05:23;;;;;;;19.85;17.85;;;;;;;;;;2032551;29;20199;-60
2021/06/20 01:06:24;;;;;;;21.13;18.80;;;;;;;;;;2032352;29;20177;-59
2021/06/20 01:07:24;;;;;;;21.73;19.52;;;;;;;;;;2030904;29;20172;-57
2021/06/20 01:08:25;;;;;;;22.67;20.30;;;;;;;;;;2028775;29;20694;-56
2021/06/20 01:09:25;;;;;;;20.92;18.80;;;;;;;;;;2029970;29;20558;-59
2021/06/20 01:10:28;;;;;;;19.48;17.58;;;;;;;;;;2022464;29;20189;-59
2021/06/20 01:11:28;;;;;;;20.83;18.80;;;;;;;;;;2032283;29;20168;-55
2021/06/20 01:12:28;;;;;;;18.38;16.58;;;;;;;;;;2032117;29;20180;-58
2021/06/20 01:13:29;;;;;;;20.40;18.48;;;;;;;;;;2031967;29;20187;-55
2021/06/20 01:14:29;;;;;;;21.75;19.45;;;;;;;;;;2032503;29;20168;-56
2021/06/20 01:15:29;;;;;;;20.00;18.00;;;;;;;;;;2032559;29;20180;-53
2021/06/20 01:16:30;;;;;;;20.63;18.52;;;;;;;;;;2033020;29;20517;-55
2021/06/20 01:17:30;;;;;;;21.15;18.92;;;;;;;;;;2032685;29;20177;-57
2021/06/20 01:18:30;;;;;;;20.95;18.95;;;;;;;;;;2031594;29;20191;-57
2021/06/20 01:19:31;;;;;;;20.05;18.17;;;;;;;;;;2032064;29;20180;-57
2021/06/20 01:20:31;;;;;;;21.73;19.45;;;;;;;;;;2031960;29;20200;-59
2021/06/20 01:21:32;;;;;;;18.77;16.98;;;;;;;;;;2032343;29;20212;-58
2021/06/20 01:22:33;;;;;;;19.65;17.83;;;;;;;;;;2032276;29;20181;-56
2021/06/20 01:23:33;;;;;;;19.83;17.90;;;;;;;;;;2033060;29;20209;-59
2021/06/20 01:24:34;;;;;;;18.90;17.10;;;;;;;;;;2032372;29;20655;-59
2021/06/20 01:25:35;;;;;;;20.10;18.10;;;;;;;;;;2040244;29;20167;-59
2021/06/20 01:26:35;;;;;;;21.13;19.02;;;;;;;;;;2039279;29;20184;-58
2021/06/20 01:27:40;;;;;;;21.02;18.92;;;;;;;;;;2024727;29;20257;-58
2021/06/20 01:28:48;;;;;;;20.85;18.95;;;;;;;;;;2030153;29;20276;-57
2021/06/20 01:29:49;;;;;;;22.85;20.58;;;;;;;;;;2032511;29;20717;-58
2021/06/20 01:30:57;;;;;;;22.65;20.60;;;;;;;;;;2031185;29;20271;-57
2021/06/20 01:31:58;;;;;;;24.38;21.58;;;;;;;;;;2032097;29;20196;-59
2021/06/20 01:32:59;;;;;;;26.42;23.65;;;;;;;;;;2028125;29;20180;-55
2021/06/20 01:33:59;;;;;;;38.53;25.27;;;;;;;;;;2031699;29;20545;-60
2021/06/20 01:35:00;;;;;;;31.23;26.15;;;;;;;;;;2030168;29;20236;-55
2021/06/20 01:36:00;;;;;;;35.75;29.23;;;;;;;;;;2031786;29;20185;-58
2021/06/20 01:37:01;;;;;;;41.63;30.25;;;;;;;;;;2033515;29;20220;-56
2021/06/20 01:38:02;;;;;;;46.50;32.53;;;;;;;;;;2031094;29;20200;-60
2021/06/20 01:39:02;;;;;;;83.28;32.53;;;;;;;;;;2027578;29;20560;-57
2021/06/20 01:40:04;;;;;;;40.92;29.75;;;;;;;;;;2037810;29;20223;-58
2021/06/20 01:41:04;;;;;;;49.80;28.13;;;;;;;;;;2039544;29;20235;-57
2021/06/20 01:42:05;;;;;;;34.67;25.02;;;;;;;;;;2039069;29;20179;-59
2021/06/20 01:43:05;;;;;;;28.92;25.83;;;;;;;;;;2039350;29;20655;-59
2021/06/20 01:44:06;;;;;;;28.45;25.42;;;;;;;;;;2039931;29;20196;-59
2021/06/20 01:45:08;;;;;;;33.42;28.70;;;;;;;;;;2039612;29;20286;-59
2021/06/20 01:46:08;;;;;;;36.35;30.17;;;;;;;;;;2032679;29;20530;-55
2021/06/20 01:47:08;;;;;;;38.45;33.58;;;;;;;;;;2031602;29;20279;-59
2021/06/20 01:48:09;;;;;;;35.47;31.65;;;;;;;;;;2029674;29;20954;-59
2021/06/20 01:49:09;;;;;;;41.08;33.38;;;;;;;;;;2031910;29;20180;-59
2021/06/20 01:50:11;;;;;;;42.85;35.83;;;;;;;;;;2032936;29;20184;-60
2021/06/20 01:51:11;;;;;;;45.78;36.92;;;;;;;;;;2032179;29;20180;-60
2021/06/20 01:52:12;;;;;;;45.35;38.92;;;;;;;;;;2032311;29;20244;-58
2021/06/20 01:53:13;;;;;;;44.20;36.42;;;;;;;;;;2032921;29;20628;-60
2021/06/20 01:54:13;;;;;;;45.63;38.63;;;;;;;;;;2031967;29;20563;-59
2021/06/20 01:55:14;;;;;;;50.05;39.50;;;;;;;;;;2032531;29;20199;-58
2021/06/20 01:56:14;;;;;;;48.05;40.65;;;;;;;;;;2032796;29;20216;-61
2021/06/20 01:57:15;;;;;;;53.13;41.75;;;;;;;;;;2031639;29;20180;-58
2021/06/20 01:58:17;;;;;;;54.85;42.70;;;;;;;;;;2021685;29;20202;-59
2021/06/20 01:59:18;;;;;;;62.95;44.70;;;;;;;;;;2030498;29;20176;-60
2021/06/20 02:00:18;;;;;;;54.47;40.35;;;;;;;;;;2033095;29;20665;-57
2021/06/20 02:01:19;;;;;;;54.70;40.45;;;;;;;;;;2032391;29;20180;-59
2021/06/20 02:02:19;;;;;;;52.15;40.13;;;;;;;;;;2032498;29;20228;-61
2021/06/20 02:03:24;;;;;;;58.35;43.35;;;;;;;;;;2031963;29;20200;-61
2021/06/20 02:04:24;;;;;;;57.53;42.92;;;;;;;;;;2032212;29;20184;-56
2021/06/20 02:05:24;;;;;;;54.08;42.08;;;;;;;;;;2032684;29;20204;-60
2021/06/20 02:06:25;;;;;;;57.42;41.53;;;;;;;;;;2030205;29;20196;-53
2021/06/20 02:07:26;;;;;;;54.33;42.47;;;;;;;;;;2023800;29;20181;-61
2021/06/20 02:08:27;;;;;;;57.72;43.22;;;;;;;;;;2023806;29;20728;-61
2021/06/20 02:09:27;;;;;;;60.97;44.28;;;;;;;;;;2032070;29;20180;-57
2021/06/20 02:10:27;;;;;;;57.97;42.15;;;;;;;;;;2032140;29;20200;-59
2021/06/20 02:11:29;;;;;;;58.47;42.75;;;;;;;;;;2037250;29;20183;-61
2021/06/20 02:12:29;;;;;;;51.55;38.58;;;;;;;;;;2039224;29;20599;-59
2021/06/20 02:13:29;;;;;;;55.00;39.15;;;;;;;;;;2032005;29;20255;-59
2021/06/20 02:14:30;;;;;;;56.95;41.58;;;;;;;;;;2023611;29;20244;-59
2021/06/20 02:15:31;;;;;;;52.47;41.17;;;;;;;;;;2031888;29;20706;-59
2021/06/20 02:16:31;;;;;;;53.38;40.22;;;;;;;;;;2029534;29;20184;-55
2021/06/20 02:17:33;;;;;;;54.05;39.85;;;;;;;;;;2031145;29;20200;-58
2021/06/20 02:18:33;;;;;;;53.38;39.17;;;;;;;;;;2032406;29;20176;-59
2021/06/20 02:19:34;;;;;;;52.95;40.17;;;;;;;;;;2032573;29;20720;-57
2021/06/20 02:20:34;;;;;;;48.63;38.75;;;;;;;;;;2033207;29;20202;-59
2021/06/20 02:21:35;;;;;;;48.53;37.42;;;;;;;;;;2032793;29;20525;-59
2021/06/20 02:22:36;;;;;;;47.58;36.63;;;;;;;;;;2032614;29;20172;-57
2021/06/20 02:23:36;;;;;;;51.28;38.70;;;;;;;;;;2031716;29;20176;-59
2021/06/20 02:24:36;;;;;;;51.40;37.75;;;;;;;;;;2032489;29;20192;-58
2021/06/20 02:25:37;;;;;;;48.33;36.63;;;;;;;;;;2033236;29;20148;-59
2021/06/20 02:26:37;;;;;;;45.67;34.67;;;;;;;;;;2032192;29;20661;-59
2021/06/20 02:27:38;;;;;;;43.85;35.53;;;;;;;;;;2033439;29;20351;-59
2021/06/20 02:28:38;;;;;;;44.63;34.70;;;;;;;;;;2033085;29;20180;-59
2021/06/20 02:29:40;;;;;;;39.15;31.55;;;;;;;;;;2032670;29;20220;-59
2021/06/20 02:30:40;;;;;;;37.72;30.60;;;;;;;;;;2032574;29;20607;-57
2021/06/20 02:31:40;;;;;;;29.90;24.63;;;;;;;;;;2032535;29;20188;-59
2021/06/20 02:32:41;;;;;;;37.28;28.50;;;;;;;;;;2032504;29;20217;-57
2021/06/20 02:33:41;;;;;;;27.00;22.30;;;;;;;;;;2032729;29;20265;-56
2021/06/20 02:34:42;;;;;;;22.13;17.48;;;;;;;;;;2032969;29;20267;-57
2021/06/20 02:35:43;;;;;;;23.75;20.08;;;;;;;;;;2032584;29;20172;-59
2021/06/20 02:36:43;;;;;;;26.73;21.38;;;;;;;;;;2032305;29;20188;-59
2021/06/20 02:37:44;;;;;;;23.42;20.25;;;;;;;;;;2032868;29;20175;-60
2021/06/20 02:38:44;;;;;;;21.95;19.63;;;;;;;;;;2033312;29;20173;-58
2021/06/20 02:39:45;;;;;;;20.77;18.58;;;;;;;;;;2033681;29;20223;-58
2021/06/20 02:40:45;;;;;;;20.20;18.10;;;;;;;;;;2033130;29;20203;-58
2021/06/20 02:41:49;;;;;;;20.83;17.73;;;;;;;;;;2032176;29;20184;-59
2021/06/20 02:42:50;;;;;;;20.95;17.55;;;;;;;;;;2032685;29;20657;-55
2021/06/20 02:43:50;;;;;;;19.92;17.83;;;;;;;;;;2032719;29;20188;-57
2021/06/20 02:44:51;;;;;;;19.65;17.65;;;;;;;;;;2031392;29;20211;-53
2021/06/20 02:45:51;;;;;;;21.30;17.75;;;;;;;;;;2033052;29;20176;-58
2021/06/20 02:46:53;;;;;;;19.08;16.65;;;;;;;;;;2031324;29;20186;-58
2021/06/20 02:47:54;;;;;;;19.90;17.85;;;;;;;;;;2032589;29;20286;-58
2021/06/20 02:48:54;;;;;;;21.55;17.75;;;;;;;;;;2039218;29;20172;-58
2021/06/20 02:49:54;;;;;;;20.30;17.83;;;;;;;;;;2039481;29;20223;-59
2021/06/20 02:50:54;;;;;;;21.17;18.75;;;;;;;;;;2033028;29;20212;-59
2021/06/20 02:51:55;;;;;;;21.58;17.95;;;;;;;;;;2032720;29;20175;-57
2021/06/20 02:52:56;;;;;;;18.42;16.60;;;;;;;;;;2024348;29;20200;-57
2021/06/20 02:53:56;;;;;;;22.85;17.90;;;;;;;;;;2015980;29;20217;-58
2021/06/20 02:54:59;;;;;;;22.95;17.90;;;;;;;;;;2024288;29;20196;-55
2021/06/20 02:55:59;;;;;;;20.40;18.25;;;;;;;;;;2032453;29;20208;-58
2021/06/20 02:57:01;;;;;;;20.92;18.80;;;;;;;;;;2033187;29;20570;-58
2021/06/20 02:58:01;;;;;;;21.40;17.55;;;;;;;;;;2033102;29;20173;-56
2021/06/20 02:59:01;;;;;;;20.40;18.05;;;;;;;;;;2033285;29;20181;-58
2021/06/20 03:00:03;;;;;;;21.75;17.33;;;;;;;;;;2033187;29;20194;-58
2021/06/20 03:01:03;;;;;;;19.83;17.50;;;;;;;;;;2032907;29;20191;-59
2021/06/20 03:02:03;;;;;;;21.38;17.35;;;;;;;;;;2032922;29;20208;-57
2021/06/20 03:03:04;;;;;;;19.77;16.83;;;;;;;;;;2033032;29;20658;-61
2021/06/20 03:04:06;;;;;;;19.35;17.38;;;;;;;;;;2033106;29;20196;-58
2021/06/20 03:05:06;;;;;;;20.27;18.15;;;;;;;;;;2034170;29;20287;-54
2021/06/20 03:06:07;;;;;;;22.85;18.42;;;;;;;;;;2035047;29;20191;-58
2021/06/20 03:07:08;;;;;;;20.20;17.38;;;;;;;;;;2034750;29;20259;-58
2021/06/20 03:08:08;;;;;;;25.00;18.25;;;;;;;;;;2034959;29;20231;-57
2021/06/20 03:09:08;;;;;;;20.83;18.73;;;;;;;;;;2035464;29;20169;-57
2021/06/20 03:10:09;;;;;;;21.15;18.80;;;;;;;;;;2034588;29;20207;-58
2021/06/20 03:11:09;;;;;;;22.83;18.95;;;;;;;;;;2034364;29;20614;-54
2021/06/20 03:12:10;;;;;;;24.40;19.83;;;;;;;;;;2034531;29;20180;-55
2021/06/20 03:13:11;;;;;;;20.48;18.05;;;;;;;;;;2034351;29;20677;-57
2021/06/20 03:14:13;;;;;;;23.67;18.92;;;;;;;;;;2034547;29;20177;-57
2021/06/20 03:15:14;;;;;;;22.33;19.92;;;;;;;;;;2039916;29;20199;-58
2021/06/20 03:16:15;;;;;;;23.98;18.90;;;;;;;;;;2040630;29;20298;-58
2021/06/20 03:17:15;;;;;;;20.48;18.17;;;;;;;;;;2033262;29;20372;-58
2021/06/20 03:18:15;;;;;;;22.33;19.35;;;;;;;;;;2031983;29;20223;-57
2021/06/20 03:19:16;;;;;;;21.80;18.55;;;;;;;;;;2031114;29;20595;-62
2021/06/20 03:20:16;;;;;;;19.33;16.73;;;;;;;;;;2033574;29;20180;-60
2021/06/20 03:21:17;;;;;;;21.48;19.33;;;;;;;;;;2033351;29;20187;-58
2021/06/20 03:22:17;;;;;;;21.92;19.60;;;;;;;;;;2034174;29;20187;-57
2021/06/20 03:23:18;;;;;;;21.38;18.05;;;;;;;;;;2032640;29;20555;-57
2021/06/20 03:24:18;;;;;;;20.15;18.05;;;;;;;;;;2034246;29;20183;-59
2021/06/20 03:25:18;;;;;;;22.10;18.13;;;;;;;;;;2087544;23;20683;-54
2021/06/20 03:26:19;;;;;;;20.25;18.10;;;;;;;;;;2071272;28;20260;-52
2021/06/20 03:27:20;;;;;;;20.58;17.05;;;;;;;;;;2068275;28;20196;-54
2021/06/20 03:28:20;;;;;;;20.05;17.52;;;;;;;;;;2073528;28;20232;-52
2021/06/20 03:29:21;;;;;;;21.20;18.20;;;;;;;;;;2066800;28;20196;-53
2021/06/20 03:30:21;;;;;;;22.25;18.33;;;;;;;;;;2070661;28;20590;-53
2021/06/20 03:31:22;;;;;;;24.42;19.67;;;;;;;;;;2073723;28;20204;-52
2021/06/20 03:32:22;;;;;;;21.48;19.13;;;;;;;;;;2071880;28;20235;-52
2021/06/20 03:33:23;;;;;;;22.70;19.33;;;;;;;;;;2071778;28;20193;-55
2021/06/20 03:34:23;;;;;;;25.67;20.40;;;;;;;;;;2068481;28;20192;-56
2021/06/20 03:35:23;;;;;;;24.92;20.05;;;;;;;;;;2066731;28;20190;-52
2021/06/20 03:36:24;;;;;;;21.63;19.38;;;;;;;;;;2066756;28;20177;-54
2021/06/20 03:37:25;;;;;;;19.88;17.90;;;;;;;;;;2063029;28;20194;-50
2021/06/20 03:38:25;;;;;;;23.67;18.63;;;;;;;;;;2062695;28;20190;-53
2021/06/20 03:39:25;;;;;;;23.70;18.35;;;;;;;;;;2073971;28;20223;-53
2021/06/20 03:40:26;;;;;;;20.13;18.13;;;;;;;;;;2070823;28;20157;-52
2021/06/20 03:41:26;;;;;;;19.63;16.95;;;;;;;;;;2069418;28;20568;-53
2021/06/20 03:42:26;;;;;;;21.63;17.40;;;;;;;;;;2071250;28;20173;-50
2021/06/20 03:43:26;;;;;;;21.15;17.98;;;;;;;;;;2061342;28;20181;-50
2021/06/20 03:44:27;;;;;;;20.13;17.52;;;;;;;;;;2073797;28;20574;-50
2021/06/20 03:45:27;;;;;;;19.67;17.58;;;;;;;;;;2070369;28;20193;-55
2021/06/20 03:46:28;;;;;;;18.83;16.58;;;;;;;;;;2068157;28;20166;-53
2021/06/20 03:47:28;;;;;;;19.23;16.92;;;;;;;;;;2067668;28;20170;-51
2021/06/20 03:48:28;;;;;;;18.23;16.40;;;;;;;;;;2063724;28;20182;-51
2021/06/20 03:49:29;;;;;;;19.85;16.33;;;;;;;;;;2074165;28;20180;-51
2021/06/20 03:50:29;;;;;;;22.30;17.35;;;;;;;;;;2070039;28;20216;-50
2021/06/20 03:51:32;;;;;;;18.13;16.17;;;;;;;;;;2073488;28;20192;-47
2021/06/20 03:52:32;;;;;;;17.23;15.40;;;;;;;;;;2073058;28;20196;-52
2021/06/20 03:53:33;;;;;;;16.25;14.48;;;;;;;;;;2063603;28;20190;-51
2021/06/20 03:54:33;;;;;;;15.85;14.20;;;;;;;;;;2060871;28;20185;-52
2021/06/20 03:55:34;;;;;;;16.63;14.85;;;;;;;;;;2064332;28;20185;-51
2021/06/20 03:56:34;;;;;;;16.08;14.38;;;;;;;;;;2067825;28;20209;-49
2021/06/20 03:57:34;;;;;;;21.05;14.48;;;;;;;;;;2059821;28;20190;-53
2021/06/20 03:58:36;;;;;;;17.05;14.90;;;;;;;;;;2064448;28;20248;-51
2021/06/20 03:59:36;;;;;;;15.07;12.73;;;;;;;;;;2064780;28;20761;-49
2021/06/20 04:00:37;;;;;;;15.93;14.27;;;;;;;;;;2076334;28;20169;-51
2021/06/20 04:01:37;;;;;;;16.10;13.77;;;;;;;;;;2064517;28;20189;-49
2021/06/20 04:02:38;;;;;;;17.13;13.15;;;;;;;;;;2075512;28;20188;-50
2021/06/20 04:03:38;;;;;;;21.05;13.32;;;;;;;;;;2070034;28;20161;-49
2021/06/20 04:04:40;;;;;;;16.23;13.40;;;;;;;;;;2070156;28;20197;-51
2021/06/20 04:05:40;;;;;;;16.67;13.55;;;;;;;;;;2076423;28;20192;-50
2021/06/20 04:06:41;;;;;;;13.95;12.55;;;;;;;;;;2067379;28;20256;-51
2021/06/20 04:07:41;;;;;;;14.98;13.38;;;;;;;;;;2072793;28;20198;-50
2021/06/20 04:08:41;;;;;;;13.25;11.98;;;;;;;;;;2076643;28;20172;-53
2021/06/20 04:09:42;;;;;;;14.52;12.75;;;;;;;;;;2068247;28;20188;-51
2021/06/20 04:10:42;;;;;;;15.75;12.55;;;;;;;;;;2061506;28;20182;-50
2021/06/20 04:11:43;;;;;;;12.60;11.32;;;;;;;;;;2076020;28;20548;-51
2021/06/20 04:12:43;;;;;;;13.05;11.52;;;;;;;;;;2066222;28;20669;-51
2021/06/20 04:13:43;;;;;;;13.32;11.77;;;;;;;;;;2076205;28;20181;-51
2021/06/20 04:14:44;;;;;;;15.48;11.05;;;;;;;;;;2076667;28;20196;-51
2021/06/20 04:15:44;;;;;;;12.77;11.40;;;;;;;;;;2068350;28;20280;-53
2021/06/20 04:16:44;;;;;;;13.65;11.55;;;;;;;;;;2067076;28;20183;-52
2021/06/20 04:17:45;;;;;;;14.45;10.57;;;;;;;;;;2056114;28;20207;-49
2021/06/20 04:18:45;;;;;;;11.52;10.02;;;;;;;;;;2067816;28;20204;-49
2021/06/20 04:19:46;;;;;;;11.38;10.30;;;;;;;;;;2059850;28;20257;-53
2021/06/20 04:20:46;;;;;;;11.65;9.80;;;;;;;;;;2075893;28;20199;-54
2021/06/20 04:21:46;;;;;;;10.75;9.65;;;;;;;;;;2076092;28;20172;-51
2021/06/20 04:22:46;;;;;;;10.63;8.65;;;;;;;;;;2072097;28;20190;-49
2021/06/20 04:23:48;;;;;;;11.95;10.30;;;;;;;;;;2067374;28;20193;-52
2021/06/20 04:24:48;;;;;;;11.43;9.30;;;;;;;;;;2065335;28;20170;-52
2021/06/20 04:25:49;;;;;;;11.05;7.75;;;;;;;;;;2069739;28;20239;-50
2021/06/20 04:26:49;;;;;;;10.02;8.45;;;;;;;;;;2063386;28;20246;-50
2021/06/20 04:27:50;;;;;;;8.13;7.32;;;;;;;;;;2063583;28;20228;-50
2021/06/20 04:28:50;;;;;;;8.38;7.53;;;;;;;;;;2070612;28;20213;-49
2021/06/20 04:29:50;;;;;;;9.68;7.75;;;;;;;;;;2069605;28;20204;-51
2021/06/20 04:30:56;;;;;;;8.65;6.65;;;;;;;;;;2062478;28;20211;-49
2021/06/20 04:31:56;;;;;;;8.98;6.70;;;;;;;;;;2075310;28;20819;-50
2021/06/20 04:32:56;;;;;;;8.18;6.10;;;;;;;;;;2070909;28;20186;-53
2021/06/20 04:33:57;;;;;;;13.27;6.40;;;;;;;;;;2072756;28;20185;-52
2021/06/20 04:34:57;;;;;;;8.43;6.22;;;;;;;;;;2072043;28;20177;-53
2021/06/20 04:35:58;;;;;;;9.60;5.95;;;;;;;;;;2069098;28;20170;-51
2021/06/20 04:36:58;;;;;;;9.50;5.75;;;;;;;;;;2065860;28;20193;-50
2021/06/20 04:37:58;;;;;;;9.57;6.00;;;;;;;;;;2072317;28;20181;-51
2021/06/20 04:38:59;;;;;;;7.18;5.70;;;;;;;;;;2073199;28;20672;-51
2021/06/20 04:39:59;;;;;;;8.55;5.82;;;;;;;;;;2068335;28;20252;-51
2021/06/20 04:41:04;;;;;;;7.63;5.55;;;;;;;;;;2073262;28;20212;-53
2021/06/20 04:42:06;;;;;;;7.00;5.05;;;;;;;;;;2069460;28;21382;-49
2021/06/20 04:43:22;;;;;;;6.88;5.28;;;;;;;;;;2071835;28;20215;-50
2021/06/20 04:45:41;;;;;;;10.18;5.72;;;;;;;;;;2067333;28;20228;-49
2021/06/20 04:46:42;;;;;;;9.77;6.60;;;;;;;;;;2062470;28;20599;-50
2021/06/20 04:47:42;;;;;;;6.97;5.28;;;;;;;;;;2059048;28;20194;-50
2021/06/20 04:48:43;;;;;;;7.43;5.57;;;;;;;;;;2059393;28;20166;-50
2021/06/20 04:49:43;;;;;;;6.07;5.30;;;;;;;;;;2060042;28;20197;-52
2021/06/20 04:50:43;;;;;;;5.85;5.30;;;;;;;;;;2059387;28;20266;-51
2021/06/20 04:51:44;;;;;;;8.52;6.07;;;;;;;;;;2064615;28;20187;-51
2021/06/20 04:52:44;;;;;;;8.68;5.40;;;;;;;;;;2064847;28;20178;-53
2021/06/20 04:53:44;;;;;;;9.90;5.90;;;;;;;;;;2061949;28;20174;-52
2021/06/20 04:54:51;;;;;;;9.52;5.72;;;;;;;;;;2062619;28;20205;-52
2021/06/20 04:55:51;;;;;;;8.20;6.22;;;;;;;;;;2062617;28;20216;-49
2021/06/20 04:56:51;;;;;;;10.10;6.50;;;;;;;;;;2065944;28;20650;-50
2021/06/20 04:57:52;;;;;;;10.07;5.53;;;;;;;;;;2067464;28;20257;-53
2021/06/20 04:58:53;;;;;;;9.55;5.93;;;;;;;;;;2066603;28;20252;-52
2021/06/20 04:59:54;;;;;;;9.07;5.57;;;;;;;;;;2059508;28;20553;-52
2021/06/20 05:00:55;;;;;;;9.82;5.68;;;;;;;;;;2059780;28;20197;-53
2021/06/20 05:01:56;;;;;;;9.82;5.32;;;;;;;;;;2063891;28;20173;-53
2021/06/20 05:02:58;;;;;;;12.07;6.05;;;;;;;;;;2067618;28;20178;-53
2021/06/20 05:03:58;;;;;;;8.80;5.18;;;;;;;;;;2067279;28;20173;-52
2021/06/20 05:04:58;;;;;;;7.13;5.32;;;;;;;;;;2066890;28;20694;-49
2021/06/20 05:05:59;;;;;;;7.82;5.93;;;;;;;;;;2067372;28;20186;-52
2021/06/20 05:06:59;;;;;;;10.25;6.10;;;;;;;;;;2060761;28;20253;-51
2021/06/20 05:08:00;;;;;;;7.22;6.32;;;;;;;;;;2059168;28;20241;-51
2021/06/20 05:09:01;;;;;;;12.10;6.53;;;;;;;;;;2051522;28;20167;-53
2021/06/20 05:10:02;;;;;;;9.32;6.50;;;;;;;;;;2059678;28;20589;-53
2021/06/20 05:11:02;;;;;;;10.57;6.00;;;;;;;;;;2060102;28;20236;-50
2021/06/20 05:12:03;;;;;;;10.95;6.05;;;;;;;;;;2066768;28;20236;-52
2021/06/20 05:13:04;;;;;;;9.65;5.82;;;;;;;;;;2061176;28;20671;-50
2021/06/20 05:14:04;;;;;;;9.43;6.10;;;;;;;;;;2059640;28;20209;-50
2021/06/20 05:15:07;;;;;;;7.82;6.18;;;;;;;;;;2059386;28;20229;-51
2021/06/20 05:16:07;;;;;;;8.60;6.03;;;;;;;;;;2060995;28;20202;-52
2021/06/20 05:17:07;;;;;;;8.30;6.95;;;;;;;;;;2060461;28;20179;-52
2021/06/20 05:18:08;;;;;;;8.35;6.15;;;;;;;;;;2059789;28;20201;-55
2021/06/20 05:19:08;;;;;;;8.10;6.40;;;;;;;;;;2059165;28;20226;-50
2021/06/20 05:20:08;;;;;;;6.55;5.53;;;;;;;;;;2059887;28;20178;-50
2021/06/20 05:21:08;;;;;;;7.38;6.28;;;;;;;;;;2074307;28;20184;-49
2021/06/20 05:22:10;;;;;;;10.15;6.63;;;;;;;;;;2076149;28;20637;-50
2021/06/20 05:23:10;;;;;;;11.25;6.18;;;;;;;;;;2066199;28;20642;-54
2021/06/20 05:24:10;;;;;;;6.85;6.22;;;;;;;;;;2059685;28;20210;-49
2021/06/20 05:25:11;;;;;;;7.70;5.97;;;;;;;;;;2061014;28;20190;-49
2021/06/20 05:26:11;;;;;;;8.18;7.00;;;;;;;;;;2066478;28;20182;-50
2021/06/20 05:27:12;;;;;;;8.88;6.30;;;;;;;;;;2065754;28;20256;-51
2021/06/20 05:28:12;;;;;;;8.50;6.45;;;;;;;;;;2067936;28;20284;-53
2021/06/20 05:29:12;;;;;;;8.05;7.25;;;;;;;;;;2067028;28;20190;-50
2021/06/20 05:30:13;;;;;;;11.50;6.75;;;;;;;;;;2067440;28;20177;-51
2021/06/20 05:31:13;;;;;;;7.53;6.68;;;;;;;;;;2067019;28;20185;-50
2021/06/20 05:32:13;;;;;;;8.82;6.97;;;;;;;;;;2067369;28;20173;-49
2021/06/20 05:33:17;;;;;;;7.38;6.68;;;;;;;;;;2067414;28;20660;-50
2021/06/20 05:34:17;;;;;;;7.47;6.68;;;;;;;;;;2067409;28;20170;-51
2021/06/20 05:35:17;;;;;;;8.43;6.80;;;;;;;;;;2066419;28;20190;-55
2021/06/20 05:36:18;;;;;;;7.75;6.65;;;;;;;;;;2064628;28;20201;-51
2021/06/20 05:37:18;;;;;;;11.00;6.82;;;;;;;;;;2069291;28;20175;-55
2021/06/20 05:38:18;;;;;;;8.90;7.00;;;;;;;;;;2063493;28;20181;-54
2021/06/20 05:39:19;;;;;;;10.40;7.15;;;;;;;;;;2067210;28;20261;-54
2021/06/20 05:40:19;;;;;;;8.88;7.13;;;;;;;;;;2074521;28;20164;-53
2021/06/20 05:41:20;;;;;;;7.90;7.07;;;;;;;;;;2066523;28;20174;-51
2021/06/20 05:42:20;;;;;;;7.75;6.93;;;;;;;;;;2067121;28;20204;-52
2021/06/20 05:43:20;;;;;;;11.20;8.07;;;;;;;;;;2069948;28;20268;-49
2021/06/20 05:44:21;;;;;;;10.40;8.00;;;;;;;;;;2070642;28;20178;-52
2021/06/20 05:45:21;;;;;;;10.10;7.20;;;;;;;;;;2067212;28;20217;-51
2021/06/20 05:46:22;;;;;;;8.57;7.65;;;;;;;;;;2065986;28;20212;-52
2021/06/20 05:47:22;;;;;;;8.88;8.05;;;;;;;;;;2067198;28;20186;-49
2021/06/20 05:48:23;;;;;;;8.88;8.07;;;;;;;;;;2066256;28;20209;-50
2021/06/20 05:49:23;;;;;;;9.70;8.32;;;;;;;;;;2066133;28;20579;-50
2021/06/20 05:50:23;;;;;;;9.90;8.38;;;;;;;;;;2071614;28;20176;-53
2021/06/20 05:51:24;;;;;;;10.73;8.30;;;;;;;;;;2072153;28;20176;-53
2021/06/20 05:52:24;;;;;;;9.10;8.30;;;;;;;;;;2069172;28;20565;-50
2021/06/20 05:53:24;;;;;;;11.88;8.35;;;;;;;;;;2072706;28;20180;-51
2021/06/20 05:54:25;;;;;;;11.23;9.05;;;;;;;;;;2075157;28;20199;-50
2021/06/20 05:55:25;;;;;;;10.55;8.95;;;;;;;;;;2069744;28;20197;-53
2021/06/20 05:56:25;;;;;;;10.95;9.18;;;;;;;;;;2063660;28;20220;-54
2021/06/20 05:57:26;;;;;;;10.65;9.15;;;;;;;;;;2070241;28;20171;-50